createdAt,value
2017-12-15T12:30:51.855Z,36.93
2017-12-15T12:31:51.528Z,37.29
2017-12-15T12:33:18.597Z,36.51
2017-12-15T12:34:00.268Z,36.58
2017-12-15T12:34:37.120Z,38.47
2017-12-15T12:35:07.115Z,36.62
2017-12-15T12:36:04.185Z,36.33
2017-12-15T12:36:34.141Z,36.27
2017-12-15T12:37:31.170Z,36.48
2017-12-15T12:38:01.168Z,36.53
2017-12-15T12:38:58.210Z,36.56
2017-12-15T12:39:28.205Z,36.65
2017-12-15T12:40:26.233Z,36.67
2017-12-15T12:40:56.230Z,37.10
2017-12-15T12:41:53.309Z,37.21
2017-12-15T12:42:23.287Z,37.20
2017-12-15T12:43:20.303Z,37.25
2017-12-15T12:43:50.305Z,37.06
2017-12-15T12:44:47.897Z,37.05
2017-12-15T12:45:17.896Z,37.07
2017-12-15T12:46:14.915Z,37.12
2017-12-15T12:46:44.984Z,37.14
2017-12-15T12:47:41.980Z,37.13
2017-12-15T12:48:11.964Z,37.22
2017-12-15T12:49:08.998Z,37.20
2017-12-15T12:49:38.989Z,37.24
2017-12-15T12:50:37.535Z,37.36
2017-12-15T12:51:07.530Z,37.41
2017-12-15T12:51:37.526Z,37.46
2017-12-15T12:52:07.528Z,37.53
2017-12-15T12:52:37.540Z,37.59
2017-12-15T12:53:07.548Z,37.63
2017-12-15T12:53:37.549Z,37.63
2017-12-15T12:54:07.547Z,37.81
2017-12-15T12:54:37.559Z,37.75
2017-12-15T12:55:07.555Z,37.74
2017-12-15T12:55:37.551Z,37.86
2017-12-15T12:56:07.550Z,37.85
2017-12-15T12:56:37.562Z,37.87
2017-12-15T12:57:07.564Z,37.95
2017-12-15T12:57:37.579Z,37.98
2017-12-15T12:58:07.569Z,37.97
2017-12-15T12:58:37.562Z,38.02
2017-12-15T12:59:07.575Z,38.02
2017-12-15T12:59:37.570Z,38.01
2017-12-15T13:00:07.579Z,38.09
2017-12-15T13:00:37.584Z,38.04
2017-12-15T13:01:07.583Z,38.13
2017-12-15T13:01:37.608Z,38.16
2017-12-15T13:02:07.581Z,38.23
2017-12-15T13:02:37.602Z,38.20
2017-12-15T13:03:07.601Z,38.23
2017-12-15T13:03:37.594Z,38.27
2017-12-15T13:04:07.604Z,38.32
2017-12-15T13:04:37.601Z,38.38
2017-12-15T13:05:07.602Z,38.39
2017-12-15T13:05:37.601Z,38.37
2017-12-15T13:06:07.596Z,38.47
2017-12-15T13:06:37.614Z,38.52
2017-12-15T13:07:07.620Z,38.51
2017-12-15T13:07:37.610Z,38.54
2017-12-15T13:08:07.620Z,38.53
2017-12-15T13:08:37.609Z,38.60
2017-12-15T13:09:07.624Z,38.62
2017-12-15T13:09:37.623Z,38.61
2017-12-15T13:10:07.623Z,38.67
2017-12-15T13:10:37.634Z,38.64
2017-12-15T13:11:07.625Z,38.70
2017-12-15T13:11:37.644Z,38.73
2017-12-15T13:12:07.646Z,38.79
2017-12-15T13:12:37.637Z,38.75
2017-12-15T13:13:07.641Z,38.81
2017-12-15T13:13:37.636Z,38.82
2017-12-15T13:14:07.640Z,38.84
2017-12-15T13:14:37.647Z,38.89
2017-12-15T13:15:07.643Z,38.85
2017-12-15T13:15:37.664Z,38.93
2017-12-15T13:16:07.649Z,38.94
2017-12-15T13:16:37.649Z,38.98
2017-12-15T13:17:07.658Z,39.03
2017-12-15T13:17:37.659Z,39.04
2017-12-15T13:18:07.657Z,39.01
2017-12-15T13:18:37.660Z,39.08
2017-12-15T13:19:07.663Z,39.06
2017-12-15T13:19:37.668Z,39.09
2017-12-15T13:20:07.668Z,39.15
2017-12-15T13:20:37.682Z,39.12
2017-12-15T13:21:07.671Z,39.20
2017-12-15T13:21:37.669Z,39.25
2017-12-15T13:22:07.678Z,39.28
2017-12-15T13:22:37.674Z,39.29
2017-12-15T13:23:07.686Z,39.31
2017-12-15T13:23:37.682Z,39.34
2017-12-15T13:24:07.686Z,39.37
2017-12-15T13:24:37.689Z,39.40
2017-12-15T13:25:07.682Z,39.43
2017-12-15T13:25:37.702Z,39.45
2017-12-15T13:26:07.697Z,39.48
2017-12-15T13:26:37.700Z,39.44
2017-12-15T13:27:07.709Z,39.46
2017-12-15T13:27:37.728Z,39.51
2017-12-15T13:28:07.713Z,39.54
2017-12-15T13:28:37.702Z,39.56
2017-12-15T13:29:07.712Z,39.55
2017-12-15T13:29:37.823Z,39.58
2017-12-15T13:30:07.713Z,39.58
2017-12-15T13:30:37.721Z,39.62
2017-12-15T13:31:07.713Z,39.61
2017-12-15T13:31:37.739Z,39.63
2017-12-15T13:32:07.725Z,39.69
2017-12-15T13:32:37.723Z,39.69
2017-12-15T13:33:07.721Z,39.70
2017-12-15T13:33:37.730Z,39.71
2017-12-15T13:34:07.725Z,39.77
2017-12-15T13:34:37.746Z,39.77
2017-12-15T13:35:07.741Z,39.85
2017-12-15T13:35:37.739Z,39.85
2017-12-15T13:36:07.739Z,39.91
2017-12-15T13:36:37.740Z,39.85
2017-12-15T13:37:07.746Z,39.87
2017-12-15T13:37:37.746Z,39.91
2017-12-15T13:38:07.742Z,39.90
2017-12-15T13:38:37.751Z,39.93
2017-12-15T13:39:07.754Z,39.93
2017-12-15T13:39:37.754Z,39.99
2017-12-15T13:40:07.754Z,40.00
2017-12-15T13:40:37.748Z,40.04
2017-12-15T13:41:07.763Z,40.04
2017-12-15T13:41:37.760Z,40.06
2017-12-15T13:42:07.768Z,40.10
2017-12-15T13:42:37.789Z,40.10
2017-12-15T13:43:07.775Z,40.09
2017-12-15T13:43:37.771Z,40.14
2017-12-15T13:44:07.766Z,40.13
2017-12-15T13:44:37.784Z,40.14
2017-12-15T13:45:07.769Z,40.18
2017-12-15T13:45:37.793Z,40.18
2017-12-15T13:46:07.873Z,40.16
2017-12-15T13:46:37.786Z,40.20
2017-12-15T13:47:07.827Z,40.22
2017-12-15T13:47:37.778Z,40.25
2017-12-15T13:48:07.784Z,40.22
2017-12-15T13:48:37.799Z,40.21
2017-12-15T13:49:07.791Z,40.26
2017-12-15T13:49:37.787Z,40.26
2017-12-15T13:50:07.791Z,40.28
2017-12-15T13:50:37.803Z,40.32
2017-12-15T13:51:07.810Z,40.29
2017-12-15T13:51:37.796Z,40.28
2017-12-15T13:52:07.800Z,40.37
2017-12-15T13:52:37.803Z,40.34
2017-12-15T13:53:07.811Z,40.33
2017-12-15T13:53:37.806Z,40.36
2017-12-15T13:54:07.814Z,40.36
2017-12-15T13:54:37.803Z,40.36
2017-12-15T13:55:07.817Z,40.37
2017-12-15T13:55:37.814Z,40.40
2017-12-15T13:56:07.820Z,40.38
2017-12-15T13:56:37.822Z,40.39
2017-12-15T13:57:07.819Z,40.38
2017-12-15T13:57:37.837Z,40.39
2017-12-15T13:58:07.825Z,40.45
2017-12-15T13:58:37.826Z,40.47
2017-12-15T13:59:07.837Z,40.46
2017-12-15T13:59:37.837Z,40.45
2017-12-15T14:00:07.848Z,40.45
2017-12-15T14:00:37.838Z,40.52
2017-12-15T14:01:07.842Z,40.52
2017-12-15T14:01:37.841Z,40.51
2017-12-15T14:02:07.837Z,40.54
2017-12-15T14:02:37.840Z,40.53
2017-12-15T14:03:07.858Z,40.56
2017-12-15T14:03:37.847Z,40.58
2017-12-15T14:04:07.852Z,40.51
2017-12-15T14:04:37.852Z,40.54
2017-12-15T14:05:07.952Z,40.59
2017-12-15T14:05:37.859Z,40.62
2017-12-15T14:06:07.866Z,40.56
2017-12-15T14:06:37.857Z,40.62
2017-12-15T14:07:07.876Z,40.66
2017-12-15T14:07:37.871Z,40.60
2017-12-15T14:08:07.868Z,40.59
2017-12-15T14:08:37.871Z,40.66
2017-12-15T14:09:07.874Z,40.65
2017-12-15T14:09:37.877Z,40.65
2017-12-15T14:10:07.875Z,40.67
2017-12-15T14:10:37.869Z,40.68
2017-12-15T14:11:07.894Z,40.65
2017-12-15T14:11:37.877Z,40.68
2017-12-15T14:12:07.874Z,40.68
2017-12-15T14:12:37.884Z,40.73
2017-12-15T14:13:07.896Z,40.73
2017-12-15T14:13:37.898Z,40.75
2017-12-15T14:14:07.891Z,40.74
2017-12-15T14:14:37.896Z,40.74
2017-12-15T14:15:07.901Z,40.73
2017-12-15T14:15:37.889Z,40.77
2017-12-15T14:16:07.897Z,40.75
2017-12-15T14:16:37.903Z,40.84
2017-12-15T14:17:07.896Z,40.79
2017-12-15T14:17:37.912Z,40.79
2017-12-15T14:18:07.905Z,40.79
2017-12-15T14:18:37.918Z,40.79
2017-12-15T14:19:07.921Z,40.78
2017-12-15T14:19:37.917Z,40.83
2017-12-15T14:20:07.926Z,40.83
2017-12-15T14:20:37.916Z,40.85
2017-12-15T14:21:07.914Z,40.83
2017-12-15T14:21:38.031Z,40.85
2017-12-15T14:22:07.930Z,40.82
2017-12-15T14:22:37.919Z,40.86
2017-12-15T14:23:07.919Z,40.87
2017-12-15T14:23:37.916Z,40.85
2017-12-15T14:24:07.937Z,40.91
2017-12-15T14:24:37.926Z,40.90
2017-12-15T14:25:08.003Z,40.91
2017-12-15T14:25:37.931Z,40.94
2017-12-15T14:26:07.928Z,40.98
2017-12-15T14:26:37.931Z,40.92
2017-12-15T14:27:07.939Z,40.92
2017-12-15T14:27:37.935Z,40.94
2017-12-15T14:28:07.936Z,40.95
2017-12-15T14:28:37.949Z,40.94
2017-12-15T14:29:07.957Z,40.97
2017-12-15T14:29:37.948Z,40.99
2017-12-15T14:30:07.942Z,40.98
2017-12-15T14:30:37.959Z,40.98
2017-12-15T14:31:07.953Z,41.00
2017-12-15T14:31:37.977Z,41.03
2017-12-15T14:32:07.959Z,41.04
2017-12-15T14:32:37.963Z,41.00
2017-12-15T14:33:07.968Z,40.99
2017-12-15T14:33:37.957Z,41.01
2017-12-15T14:34:07.967Z,41.06
2017-12-15T14:34:37.964Z,41.03
2017-12-15T14:35:07.968Z,41.07
2017-12-15T14:35:37.963Z,41.02
2017-12-15T14:36:07.978Z,41.07
2017-12-15T14:36:37.977Z,41.11
2017-12-15T14:37:07.978Z,41.09
2017-12-15T14:37:37.980Z,41.09
2017-12-15T14:38:07.986Z,41.10
2017-12-15T14:38:37.985Z,41.10
2017-12-15T14:39:07.986Z,41.09
2017-12-15T14:39:37.991Z,41.08
2017-12-15T14:40:08.027Z,41.11
2017-12-15T14:40:37.986Z,41.09
2017-12-15T14:41:07.994Z,41.14
2017-12-15T14:41:38.000Z,41.15
2017-12-15T14:42:07.993Z,41.11
2017-12-15T14:42:38.002Z,41.14
2017-12-15T14:43:08.005Z,41.16
2017-12-15T14:43:38.003Z,41.17
2017-12-15T14:44:07.998Z,41.22
2017-12-15T14:44:38.003Z,41.17
2017-12-15T14:45:08.004Z,41.20
2017-12-15T14:45:38.012Z,41.19
2017-12-15T14:46:08.012Z,41.21
2017-12-15T14:46:38.018Z,41.18
2017-12-15T14:47:08.012Z,41.26
2017-12-15T14:47:38.034Z,41.21
2017-12-15T14:48:08.020Z,41.16
2017-12-15T14:48:43.832Z,41.22
2017-12-15T14:49:08.021Z,41.23
2017-12-15T14:49:38.095Z,41.23
2017-12-15T14:50:08.065Z,41.25
2017-12-15T14:50:38.030Z,41.24
2017-12-15T14:51:08.034Z,41.28
2017-12-15T14:51:38.033Z,41.24
2017-12-15T14:52:08.030Z,41.24
2017-12-15T14:52:38.038Z,41.27
2017-12-15T14:53:08.037Z,41.24
2017-12-15T14:53:38.037Z,41.28
2017-12-15T14:54:08.040Z,41.29
2017-12-15T14:54:38.044Z,41.29
2017-12-15T14:55:08.045Z,41.30
2017-12-15T14:55:38.047Z,41.34
2017-12-15T14:56:08.046Z,41.33
2017-12-15T14:56:38.052Z,41.33
2017-12-15T14:57:08.058Z,41.33
2017-12-15T14:57:38.056Z,41.33
2017-12-15T14:58:08.059Z,41.34
2017-12-15T14:58:38.054Z,41.30
2017-12-15T14:59:08.053Z,41.34
2017-12-15T14:59:38.052Z,41.39
2017-12-15T15:00:08.060Z,41.34
2017-12-15T15:00:38.062Z,41.38
2017-12-15T15:01:08.061Z,41.37
2017-12-15T15:01:38.073Z,41.38
2017-12-15T15:02:08.070Z,41.36
2017-12-15T15:02:38.072Z,41.37
2017-12-15T15:03:08.082Z,41.37
2017-12-15T15:03:38.071Z,41.46
2017-12-15T15:04:08.080Z,41.39
2017-12-15T15:04:38.073Z,41.42
2017-12-15T15:05:08.080Z,41.40
2017-12-15T15:05:38.095Z,41.44
2017-12-15T15:06:08.083Z,41.39
2017-12-15T15:06:38.083Z,41.40
2017-12-15T15:07:08.087Z,41.43
2017-12-15T15:07:38.090Z,41.39
2017-12-15T15:08:08.093Z,41.47
2017-12-15T15:08:38.097Z,41.35
2017-12-15T15:09:08.108Z,41.40
2017-12-15T15:09:38.142Z,41.50
2017-12-15T15:10:08.117Z,41.44
2017-12-15T15:10:38.138Z,41.46
2017-12-15T15:11:08.107Z,41.47
2017-12-15T15:11:38.113Z,41.45
2017-12-15T15:12:08.106Z,41.48
2017-12-15T15:12:38.116Z,41.43
2017-12-15T15:13:08.111Z,41.50
2017-12-15T15:13:38.119Z,41.49
2017-12-15T15:14:08.125Z,41.51
2017-12-15T15:14:38.115Z,41.48
2017-12-15T15:15:08.121Z,41.49
2017-12-15T15:15:38.129Z,41.46
2017-12-15T15:16:08.123Z,41.50
2017-12-15T15:16:38.116Z,41.52
2017-12-15T15:17:08.121Z,41.48
2017-12-15T15:17:38.132Z,41.49
2017-12-15T15:18:08.139Z,41.48
2017-12-15T15:18:38.132Z,41.46
2017-12-15T15:19:08.135Z,41.53
2017-12-15T15:19:38.150Z,41.53
2017-12-15T15:20:08.137Z,41.49
2017-12-15T15:20:38.144Z,41.51
2017-12-15T15:21:08.144Z,41.54
2017-12-15T15:21:38.138Z,41.53
2017-12-15T15:22:08.144Z,41.52
2017-12-15T15:22:38.160Z,41.53
2017-12-15T15:23:08.144Z,41.55
2017-12-15T15:23:38.147Z,41.54
2017-12-15T15:24:08.144Z,41.51
2017-12-15T15:24:38.156Z,41.54
2017-12-15T15:25:08.152Z,41.55
2017-12-15T15:25:38.182Z,41.56
2017-12-15T15:26:08.167Z,41.59
2017-12-15T15:26:38.168Z,41.53
2017-12-15T15:27:08.157Z,41.59
2017-12-15T15:27:38.200Z,41.58
2017-12-15T15:28:08.172Z,41.58
2017-12-15T15:28:38.172Z,41.56
2017-12-15T15:29:08.170Z,41.60
2017-12-15T15:29:38.169Z,41.59
2017-12-15T15:30:08.178Z,41.58
2017-12-15T15:30:38.181Z,41.58
2017-12-15T15:31:08.184Z,41.59
2017-12-15T15:31:38.185Z,41.63
2017-12-15T15:32:08.182Z,41.60
2017-12-15T15:32:38.175Z,41.60
2017-12-15T15:33:08.196Z,41.63
2017-12-15T15:33:38.182Z,41.61
2017-12-15T15:34:08.193Z,41.59
2017-12-15T15:34:38.186Z,41.60
2017-12-15T15:35:08.205Z,41.60
2017-12-15T15:35:38.194Z,41.61
2017-12-15T15:36:08.208Z,41.60
2017-12-15T15:36:38.210Z,41.64
2017-12-15T15:37:08.194Z,41.61
2017-12-15T15:37:38.207Z,41.61
2017-12-15T15:38:08.206Z,41.64
2017-12-15T15:38:38.203Z,41.60
2017-12-15T15:39:08.212Z,41.61
2017-12-15T15:39:38.246Z,41.60
2017-12-15T15:40:08.212Z,41.68
2017-12-15T15:40:38.206Z,41.66
2017-12-15T15:41:08.214Z,41.64
2017-12-15T15:41:38.213Z,41.65
2017-12-15T15:42:08.219Z,41.67
2017-12-15T15:42:38.226Z,41.68
2017-12-15T15:43:08.251Z,41.68
2017-12-15T15:43:38.246Z,41.65
2017-12-15T15:44:08.256Z,41.64
2017-12-15T15:44:38.245Z,41.64
2017-12-15T15:45:08.255Z,41.66
2017-12-15T15:45:38.238Z,41.66
2017-12-15T15:46:08.227Z,41.61
2017-12-15T15:46:38.264Z,41.69
2017-12-15T15:47:08.235Z,41.69
2017-12-15T15:47:38.236Z,41.70
2017-12-15T15:48:08.256Z,41.69
2017-12-15T15:48:38.269Z,41.70
2017-12-15T15:49:08.251Z,41.70
2017-12-15T15:49:38.240Z,41.71
2017-12-15T15:50:08.247Z,41.67
2017-12-15T15:50:38.248Z,41.72
2017-12-15T15:51:08.256Z,41.70
2017-12-15T15:51:38.261Z,41.72
2017-12-15T15:52:08.261Z,41.69
2017-12-15T15:52:38.267Z,41.66
2017-12-15T15:53:08.252Z,41.69
2017-12-15T15:53:38.265Z,41.72
2017-12-15T15:54:08.270Z,41.70
2017-12-15T15:54:38.272Z,41.74
2017-12-15T15:55:08.263Z,41.68
2017-12-15T15:55:38.312Z,41.72
2017-12-15T15:56:08.276Z,41.72
2017-12-15T15:56:38.274Z,41.72
2017-12-15T15:57:08.275Z,41.71
2017-12-15T15:57:38.282Z,41.71
2017-12-15T15:58:08.284Z,41.72
2017-12-15T15:58:38.288Z,41.73
2017-12-15T15:59:08.275Z,41.75
2017-12-15T15:59:38.292Z,41.68
2017-12-15T16:00:08.283Z,41.73
2017-12-15T16:00:38.303Z,41.72
2017-12-15T16:01:08.306Z,41.73
2017-12-15T16:01:38.302Z,41.72
2017-12-15T16:02:08.304Z,41.77
2017-12-15T16:02:38.294Z,41.73
2017-12-15T16:03:08.295Z,41.75
2017-12-15T16:03:38.303Z,41.75
2017-12-15T16:04:08.301Z,41.71
2017-12-15T16:04:38.349Z,41.77
2017-12-15T16:05:08.346Z,41.77
2017-12-15T16:05:38.313Z,41.75
2017-12-15T16:06:08.303Z,41.77
2017-12-15T16:06:38.306Z,41.78
2017-12-15T16:07:08.311Z,41.77
2017-12-15T16:07:38.316Z,41.81
2017-12-15T16:08:08.315Z,41.78
2017-12-15T16:08:38.323Z,41.80
2017-12-15T16:09:08.314Z,41.82
2017-12-15T16:09:38.318Z,41.78
2017-12-15T16:10:08.331Z,41.78
2017-12-15T16:10:38.337Z,41.76
2017-12-15T16:11:08.388Z,41.81
2017-12-15T16:11:38.319Z,41.77
2017-12-15T16:12:08.326Z,41.78
2017-12-15T16:12:38.327Z,41.83
2017-12-15T16:13:08.333Z,41.76
2017-12-15T16:13:38.332Z,41.82
2017-12-15T16:14:08.332Z,41.78
2017-12-15T16:14:38.342Z,41.79
2017-12-15T16:15:08.345Z,41.82
2017-12-15T16:15:38.336Z,41.78
2017-12-15T16:16:08.428Z,41.79
2017-12-15T16:16:38.346Z,41.86
2017-12-15T16:17:08.345Z,41.82
2017-12-15T16:17:38.349Z,41.81
2017-12-15T16:18:08.349Z,41.83
2017-12-15T16:18:38.357Z,41.81
2017-12-15T16:19:08.354Z,41.82
2017-12-15T16:19:38.356Z,41.82
2017-12-15T16:20:08.351Z,41.85
2017-12-15T16:20:38.358Z,41.77
2017-12-15T16:21:08.363Z,41.81
2017-12-15T16:21:38.360Z,41.83
2017-12-15T16:22:08.358Z,41.79
2017-12-15T16:22:38.372Z,41.81
2017-12-15T16:23:08.370Z,41.82
2017-12-15T16:23:38.371Z,41.85
2017-12-15T16:24:08.365Z,41.81
2017-12-15T16:24:38.389Z,41.84
2017-12-15T16:25:08.380Z,41.84
2017-12-15T16:25:38.386Z,41.87
2017-12-15T16:26:08.383Z,41.86
2017-12-15T16:26:38.392Z,41.85
2017-12-15T16:27:08.389Z,41.85
2017-12-15T16:27:38.388Z,41.84
2017-12-15T16:28:08.388Z,41.88
2017-12-15T16:28:38.395Z,41.88
2017-12-15T16:29:08.397Z,41.87
2017-12-15T16:29:38.391Z,41.90
2017-12-15T16:30:08.388Z,41.82
2017-12-15T16:30:38.398Z,41.84
2017-12-15T16:31:08.413Z,41.77
2017-12-15T16:31:38.398Z,41.63
2017-12-15T16:32:08.393Z,41.71
2017-12-15T16:32:38.409Z,41.77
2017-12-15T16:33:08.415Z,41.69
2017-12-15T16:33:38.404Z,41.73
2017-12-15T16:34:08.417Z,41.65
2017-12-15T16:34:38.410Z,41.63
2017-12-15T16:35:08.417Z,41.46
2017-12-15T16:35:38.428Z,41.51
2017-12-15T16:36:08.422Z,41.46
2017-12-15T16:36:38.421Z,41.56
2017-12-15T16:37:08.426Z,41.76
2017-12-15T16:37:38.424Z,41.74
2017-12-15T16:38:08.430Z,41.61
2017-12-15T16:38:38.434Z,41.72
2017-12-15T16:39:08.423Z,41.60
2017-12-15T16:39:38.428Z,41.59
2017-12-15T16:40:08.423Z,41.55
2017-12-15T16:40:38.431Z,41.51
2017-12-15T16:41:08.440Z,41.36
2017-12-15T16:41:38.435Z,41.44
2017-12-15T16:42:08.437Z,41.14
2017-12-15T16:42:38.438Z,41.60
2017-12-15T16:43:08.438Z,41.50
2017-12-15T16:43:38.441Z,41.61
2017-12-15T16:44:08.442Z,41.54
2017-12-15T16:44:38.440Z,41.20
2017-12-15T16:45:08.441Z,40.62
2017-12-15T16:45:38.494Z,40.45
2017-12-15T16:46:08.456Z,40.41
2017-12-15T16:46:38.450Z,40.08
2017-12-15T16:47:08.456Z,39.78
2017-12-15T16:47:38.457Z,39.77
2017-12-15T16:48:08.456Z,39.86
2017-12-15T16:48:38.455Z,39.92
2017-12-15T16:49:08.458Z,39.66
2017-12-15T16:49:38.464Z,39.49
2017-12-15T16:50:08.468Z,39.14
2017-12-15T16:50:38.471Z,39.17
2017-12-15T16:51:08.473Z,39.25
2017-12-15T16:51:38.473Z,39.16
2017-12-15T16:52:08.479Z,38.95
2017-12-15T16:52:38.471Z,38.96
2017-12-15T16:53:08.472Z,38.85
2017-12-15T16:53:38.481Z,38.88
2017-12-15T16:54:08.490Z,38.83
2017-12-15T16:54:38.479Z,38.80
2017-12-15T16:55:08.481Z,38.70
2017-12-15T16:55:38.493Z,38.72
2017-12-15T16:56:08.497Z,38.69
2017-12-15T16:56:38.498Z,38.72
2017-12-15T16:57:08.494Z,38.89
2017-12-15T16:57:38.500Z,38.90
2017-12-15T16:58:08.500Z,38.90
2017-12-15T16:58:38.503Z,38.87
2017-12-15T16:59:08.503Z,38.71
2017-12-15T16:59:38.499Z,38.68
2017-12-15T17:00:08.512Z,38.57
2017-12-15T17:00:38.509Z,38.55
2017-12-15T17:01:08.506Z,38.51
2017-12-15T17:01:38.512Z,38.46
2017-12-15T17:02:08.531Z,38.39
2017-12-15T17:02:38.515Z,38.53
2017-12-15T17:03:08.524Z,38.54
2017-12-15T17:03:38.526Z,38.55
2017-12-15T17:04:08.519Z,38.53
2017-12-15T17:04:38.530Z,38.41
2017-12-15T17:05:08.571Z,38.81
2017-12-15T17:05:38.540Z,39.00
2017-12-15T17:06:08.532Z,39.10
2017-12-15T17:06:38.535Z,39.23
2017-12-15T17:07:08.537Z,39.24
2017-12-15T17:07:38.537Z,39.22
2017-12-15T17:08:08.540Z,39.16
2017-12-15T17:08:38.548Z,38.91
2017-12-15T17:09:08.550Z,38.98
2017-12-15T17:09:38.540Z,39.13
2017-12-15T17:10:08.550Z,39.24
2017-12-15T17:10:38.553Z,39.08
2017-12-15T17:11:08.553Z,39.03
2017-12-15T17:11:38.551Z,39.04
2017-12-15T17:12:08.558Z,39.01
2017-12-15T17:12:38.558Z,39.04
2017-12-15T17:13:08.560Z,38.97
2017-12-15T17:13:38.569Z,39.04
2017-12-15T17:14:08.597Z,39.06
2017-12-15T17:14:38.564Z,39.07
2017-12-15T17:15:08.569Z,39.10
2017-12-15T17:15:38.576Z,39.17
2017-12-15T17:16:08.571Z,39.25
2017-12-15T17:16:38.575Z,39.31
2017-12-15T17:17:08.577Z,39.36
2017-12-15T17:17:38.588Z,39.33
2017-12-15T17:18:08.588Z,39.37
2017-12-15T17:18:38.585Z,39.42
2017-12-15T17:19:08.593Z,39.44
2017-12-15T17:19:38.589Z,39.53
2017-12-15T17:20:08.596Z,39.51
2017-12-15T17:20:38.592Z,39.55
2017-12-15T17:21:08.600Z,39.54
2017-12-15T17:21:38.599Z,39.60
2017-12-15T17:22:08.604Z,39.60
2017-12-15T17:22:38.596Z,39.66
2017-12-15T17:23:08.598Z,39.73
2017-12-15T17:23:38.604Z,39.73
2017-12-15T17:24:08.608Z,39.77
2017-12-15T17:24:38.610Z,39.78
2017-12-15T17:25:08.692Z,39.86
2017-12-15T17:25:38.615Z,39.82
2017-12-15T17:26:08.617Z,39.87
2017-12-15T17:26:38.617Z,39.92
2017-12-15T17:27:08.623Z,39.91
2017-12-15T17:27:38.627Z,39.97
2017-12-15T17:28:08.628Z,39.96
2017-12-15T17:28:38.627Z,40.00
2017-12-15T17:29:08.623Z,40.02
2017-12-15T17:29:38.632Z,40.08
2017-12-15T17:30:08.631Z,40.08
2017-12-15T17:30:38.633Z,40.12
2017-12-15T17:31:08.633Z,40.15
2017-12-15T17:31:38.638Z,40.16
2017-12-15T17:32:08.635Z,40.16
2017-12-15T17:32:38.635Z,40.20
2017-12-15T17:33:08.646Z,40.19
2017-12-15T17:33:38.650Z,40.23
2017-12-15T17:34:08.650Z,40.25
2017-12-15T17:34:38.649Z,40.26
2017-12-15T17:35:08.659Z,40.31
2017-12-15T17:35:38.713Z,40.27
2017-12-15T17:36:08.655Z,40.34
2017-12-15T17:36:38.654Z,40.36
2017-12-15T17:37:08.652Z,40.36
2017-12-15T17:37:38.665Z,40.40
2017-12-15T17:38:08.662Z,40.37
2017-12-15T17:38:38.668Z,40.46
2017-12-15T17:39:08.669Z,40.42
2017-12-15T17:39:38.667Z,40.45
2017-12-15T17:40:08.672Z,40.47
2017-12-15T17:40:38.680Z,40.46
2017-12-15T17:41:08.676Z,40.50
2017-12-15T17:41:38.675Z,40.50
2017-12-15T17:42:08.677Z,40.54
2017-12-15T17:42:38.680Z,40.51
2017-12-15T17:43:08.676Z,40.59
2017-12-15T17:43:38.677Z,40.60
2017-12-15T17:44:08.690Z,40.61
2017-12-15T17:44:38.693Z,40.61
2017-12-15T17:45:08.686Z,40.65
2017-12-15T17:45:38.694Z,40.60
2017-12-15T17:46:08.692Z,40.65
2017-12-15T17:46:38.694Z,40.69
2017-12-15T17:47:08.696Z,40.67
2017-12-15T17:47:38.697Z,40.71
2017-12-15T17:48:08.694Z,40.71
2017-12-15T17:48:38.706Z,40.73
2017-12-15T17:49:08.713Z,40.77
2017-12-15T17:49:38.717Z,40.77
2017-12-15T17:50:08.726Z,40.79
2017-12-15T17:50:38.712Z,40.76
2017-12-15T17:51:08.709Z,40.77
2017-12-15T17:51:38.713Z,40.77
2017-12-15T17:52:08.708Z,40.77
2017-12-15T17:52:38.720Z,40.79
2017-12-15T17:53:08.719Z,40.81
2017-12-15T17:53:38.721Z,40.83
2017-12-15T17:54:08.719Z,40.87
2017-12-15T17:54:38.725Z,40.90
2017-12-15T17:55:08.731Z,40.85
2017-12-15T17:55:38.750Z,40.87
2017-12-15T17:56:08.727Z,40.91
2017-12-15T17:56:38.730Z,40.89
2017-12-15T17:57:08.734Z,40.91
2017-12-15T17:57:38.730Z,40.95
2017-12-15T17:58:08.739Z,40.94
2017-12-15T17:58:38.743Z,40.95
2017-12-15T17:59:08.751Z,40.95
2017-12-15T17:59:38.748Z,40.97
2017-12-15T18:00:08.745Z,40.97
2017-12-15T18:00:38.739Z,41.00
2017-12-15T18:01:08.754Z,41.00
2017-12-15T18:01:38.748Z,41.01
2017-12-15T18:02:08.753Z,41.00
2017-12-15T18:02:38.752Z,41.00
2017-12-15T18:03:08.753Z,41.03
2017-12-15T18:03:38.768Z,41.07
2017-12-15T18:04:08.760Z,41.02
2017-12-15T18:04:38.756Z,41.02
2017-12-15T18:05:08.756Z,41.07
2017-12-15T18:05:38.763Z,41.06
2017-12-15T18:06:08.836Z,41.07
2017-12-15T18:06:38.763Z,41.07
2017-12-15T18:07:08.777Z,41.11
2017-12-15T18:07:38.777Z,41.08
2017-12-15T18:08:08.775Z,41.10
2017-12-15T18:08:38.779Z,41.12
2017-12-15T18:09:08.772Z,41.12
2017-12-15T18:09:38.780Z,41.08
2017-12-15T18:10:08.786Z,41.18
2017-12-15T18:10:38.783Z,41.17
2017-12-15T18:11:08.782Z,41.14
2017-12-15T18:11:38.784Z,41.12
2017-12-15T18:12:08.792Z,41.18
2017-12-15T18:12:38.791Z,41.17
2017-12-15T18:13:08.791Z,41.17
2017-12-15T18:13:38.789Z,41.18
2017-12-15T18:14:08.806Z,41.20
2017-12-15T18:14:38.800Z,41.18
2017-12-15T18:15:08.798Z,41.18
2017-12-15T18:15:38.796Z,41.19
2017-12-15T18:16:08.801Z,41.17
2017-12-15T18:16:38.805Z,41.21
2017-12-15T18:17:08.810Z,41.21
2017-12-15T18:17:38.808Z,41.21
2017-12-15T18:18:08.808Z,41.27
2017-12-15T18:18:38.814Z,41.21
2017-12-15T18:19:08.821Z,41.23
2017-12-15T18:19:38.819Z,41.24
2017-12-15T18:20:08.821Z,41.26
2017-12-15T18:20:38.814Z,41.27
2017-12-15T18:21:08.821Z,41.24
2017-12-15T18:21:38.828Z,41.28
2017-12-15T18:22:08.826Z,41.28
2017-12-15T18:22:38.821Z,41.31
2017-12-15T18:23:08.824Z,41.30
2017-12-15T18:23:38.830Z,41.30
2017-12-15T18:24:08.833Z,41.32
2017-12-15T18:24:38.834Z,41.31
2017-12-15T18:25:08.836Z,41.31
2017-12-15T18:25:38.835Z,41.28
2017-12-15T18:26:08.845Z,41.31
2017-12-15T18:26:38.835Z,41.31
2017-12-15T18:27:08.845Z,41.33
2017-12-15T18:27:38.842Z,41.32
2017-12-15T18:28:08.851Z,41.29
2017-12-15T18:28:38.850Z,41.34
2017-12-15T18:29:08.854Z,41.32
2017-12-15T18:29:38.855Z,41.34
2017-12-15T18:30:08.858Z,41.39
2017-12-15T18:30:38.861Z,41.39
2017-12-15T18:31:08.851Z,41.37
2017-12-15T18:31:38.861Z,41.32
2017-12-15T18:32:08.864Z,41.32
2017-12-15T18:32:38.862Z,41.40
2017-12-15T18:33:08.866Z,41.37
2017-12-15T18:33:38.868Z,41.39
2017-12-15T18:34:08.867Z,41.38
2017-12-15T18:34:38.873Z,41.43
2017-12-15T18:35:08.869Z,41.42
2017-12-15T18:35:38.875Z,41.38
2017-12-15T18:36:08.874Z,41.42
2017-12-15T18:36:38.883Z,41.42
2017-12-15T18:37:08.874Z,41.39
2017-12-15T18:37:38.881Z,41.40
2017-12-15T18:38:08.882Z,41.42
2017-12-15T18:38:38.879Z,41.37
2017-12-15T18:39:08.880Z,41.43
2017-12-15T18:39:38.885Z,41.43
2017-12-15T18:40:08.891Z,41.40
2017-12-15T18:40:38.891Z,41.44
2017-12-15T18:41:08.899Z,41.45
2017-12-15T18:41:38.896Z,41.42
2017-12-15T18:42:08.899Z,41.47
2017-12-15T18:42:38.904Z,41.42
2017-12-15T18:43:08.900Z,41.40
2017-12-15T18:43:38.907Z,41.44
2017-12-15T18:44:08.909Z,41.47
2017-12-15T18:44:38.901Z,41.44
2017-12-15T18:45:08.903Z,41.43
2017-12-15T18:45:38.926Z,41.44
2017-12-15T18:46:08.909Z,41.47
2017-12-15T18:46:38.921Z,41.47
2017-12-15T18:47:08.910Z,41.49
2017-12-15T18:47:38.924Z,41.44
2017-12-15T18:48:08.913Z,41.45
2017-12-15T18:48:38.920Z,41.46
2017-12-15T18:49:08.920Z,41.44
2017-12-15T18:49:38.926Z,41.48
2017-12-15T18:50:08.927Z,41.49
2017-12-15T18:50:38.934Z,41.48
2017-12-15T18:51:08.924Z,41.51
2017-12-15T18:51:38.937Z,41.54
2017-12-15T18:52:08.936Z,41.47
2017-12-15T18:52:38.944Z,41.45
2017-12-15T18:53:08.948Z,41.55
2017-12-15T18:53:38.954Z,41.49
2017-12-15T18:54:08.948Z,41.48
2017-12-15T18:54:38.942Z,41.48
2017-12-15T18:55:08.950Z,41.50
2017-12-15T18:55:38.946Z,41.50
2017-12-15T18:56:08.941Z,41.49
2017-12-15T18:56:38.944Z,41.49
2017-12-15T18:57:08.956Z,41.51
2017-12-15T18:57:38.955Z,41.49
2017-12-15T18:58:08.964Z,41.52
2017-12-15T18:58:38.962Z,41.50
2017-12-15T18:59:08.957Z,41.53
2017-12-15T18:59:38.955Z,41.51
2017-12-15T19:00:08.968Z,41.54
2017-12-15T19:00:38.959Z,41.49
2017-12-15T19:01:08.966Z,41.50
2017-12-15T19:01:38.968Z,41.57
2017-12-15T19:02:08.964Z,41.54
2017-12-15T19:02:38.973Z,41.53
2017-12-15T19:03:08.980Z,41.55
2017-12-15T19:03:38.974Z,41.54